Time;durP1;ratioP1;P1;durP2;ratioP2;P2;SDS_P1;SDS_P2;PMS_P1;PMS_P2;Temp;Humidity;BMP_temperature;BMP_pressure;BME280_temperature;BME280_humidity;BME280_pressure;Samples;Min_cycle;Max_cycle;Signal;HPM_P1;HPM_P2
2024/03/30 00:01:32;;;;;;;15.05;4.32;;;;;;;13.80;81.11;100156.94;5050215;28;20108;-79
2024/03/30 00:03:58;;;;;;;13.05;4.75;;;;;;;13.81;81.25;100166.59;5048867;28;20025;-79
2024/03/30 00:06:23;;;;;;;13.65;3.80;;;;;;;13.97;80.59;100184.63;5050691;28;20076;-79
2024/03/30 00:08:48;;;;;;;11.43;3.80;;;;;;;13.90;80.67;100183.94;5049958;28;20398;-79
2024/03/30 00:11:14;;;;;;;20.65;4.03;;;;;;;13.58;81.70;100175.50;5050189;28;20136;-79
2024/03/30 00:13:39;;;;;;;13.23;3.17;;;;;;;13.99;79.84;100197.78;5050109;28;20398;-79
2024/03/30 00:16:09;;;;;;;15.15;4.25;;;;;;;13.65;82.03;100190.41;5050201;28;20406;-79
2024/03/30 00:18:35;;;;;;;16.30;4.88;;;;;;;13.51;82.90;100164.94;5050120;28;20037;-79
2024/03/30 00:21:04;;;;;;;15.52;4.45;;;;;;;13.49;84.33;100199.19;5049921;28;20061;-79
2024/03/30 00:23:33;;;;;;;17.38;4.60;;;;;;;13.60;82.97;100195.66;5050132;28;20028;-80
2024/03/30 00:25:59;;;;;;;11.95;4.30;;;;;;;13.77;82.42;100185.03;5049786;28;20033;-79
2024/03/30 00:28:24;;;;;;;14.27;5.25;;;;;;;13.87;81.72;100200.50;5049889;28;20151;-80
2024/03/30 00:30:51;;;;;;;17.23;4.65;;;;;;;13.91;80.74;100198.97;5062351;28;20040;-79
2024/03/30 00:33:16;;;;;;;22.17;7.00;;;;;;;13.75;80.37;100184.47;5069340;28;20485;-78
2024/03/30 00:35:43;;;;;;;16.33;5.20;;;;;;;13.99;80.50;100187.88;5049475;28;20036;-79
2024/03/30 00:38:09;;;;;;;17.60;5.07;;;;;;;13.70;81.80;100172.81;5049504;28;20048;-79
2024/03/30 00:40:35;;;;;;;18.33;5.72;;;;;;;13.92;80.49;100181.84;5049755;28;20029;-80
2024/03/30 00:43:03;;;;;;;16.15;5.10;;;;;;;13.77;79.91;100152.03;5049533;28;20025;-80
2024/03/30 00:45:30;;;;;;;18.30;4.25;;;;;;;13.53;81.95;100144.06;5051708;28;20029;-79
2024/03/30 00:47:56;;;;;;;16.92;4.00;;;;;;;14.18;79.92;100199.25;5049407;28;20060;-80
2024/03/30 00:50:21;;;;;;;13.45;4.53;;;;;;;13.80;83.10;100195.28;5049166;28;20056;-78
2024/03/30 00:52:47;;;;;;;15.77;4.53;;;;;;;13.62;83.87;100182.03;5049596;28;20028;-80
2024/03/30 00:55:12;;;;;;;18.73;4.65;;;;;;;13.38;85.21;100165.16;5048938;28;20143;-79
2024/03/30 00:57:41;;;;;;;12.45;3.53;;;;;;;13.44;86.12;100186.50;5048844;28;20124;-79
2024/03/30 01:00:13;;;;;;;17.33;4.75;;;;;;;13.37;86.24;100172.41;5049098;28;20025;-78
2024/03/30 01:02:39;;;;;;;14.45;5.05;;;;;;;13.21;87.96;100171.22;5049307;28;20079;-81
2024/03/30 01:05:05;;;;;;;13.80;3.78;;;;;;;13.54;85.33;100191.25;5047371;28;20029;-79
2024/03/30 01:07:31;;;;;;;15.30;4.40;;;;;;;13.29;87.33;100171.91;5048998;28;20029;-79
2024/03/30 01:09:56;;;;;;;13.55;4.07;;;;;;;13.17;87.35;100153.97;5049125;28;20433;-79
2024/03/30 01:12:24;;;;;;;15.15;4.55;;;;;;;13.33;86.75;100173.09;5049267;28;20112;-79
2024/03/30 01:14:49;;;;;;;13.07;4.63;;;;;;;13.55;84.88;100187.53;5049214;28;20082;-79
2024/03/30 01:17:17;;;;;;;13.43;3.90;;;;;;;13.15;86.84;100172.16;5050558;28;20033;-79
2024/03/30 01:19:43;;;;;;;12.68;3.65;;;;;;;13.05;88.35;100171.91;5048700;28;20411;-79
2024/03/30 01:22:08;;;;;;;18.02;3.88;;;;;;;13.21;87.12;100173.06;5047140;28;20123;-79
2024/03/30 01:24:34;;;;;;;11.75;4.47;;;;;;;13.28;86.75;100203.25;5048660;28;20093;-79
2024/03/30 01:27:03;;;;;;;14.40;4.38;;;;;;;12.94;89.15;100194.16;5049250;28;20048;-79
2024/03/30 01:29:30;;;;;;;12.82;4.35;;;;;;;13.20;87.31;100185.66;5048406;28;20040;-79
2024/03/30 01:31:56;;;;;;;14.87;4.80;;;;;;;13.25;86.51;100193.78;5048076;28;20529;-79
2024/03/30 01:34:23;;;;;;;14.52;3.97;;;;;;;13.14;87.92;100202.66;5047694;28;20384;-79
2024/03/30 01:36:49;;;;;;;;;;;;;;;12.91;89.26;100198.06;5047885;28;20136;-79
2024/03/30 01:39:15;;;;;;;13.65;4.80;;;;;;;12.71;86.49;100177.00;5048531;28;20007;-80
2024/03/30 01:41:40;;;;;;;15.40;4.28;;;;;;;13.22;83.48;100210.34;5048816;28;20122;-79
2024/03/30 01:44:06;;;;;;;12.75;4.88;;;;;;;13.30;82.39;100203.88;5047611;28;20037;-78
2024/03/30 01:46:33;;;;;;;11.95;4.40;;;;;;;12.93;84.54;100189.81;5048351;28;20036;-79
2024/03/30 01:49:01;;;;;;;17.83;5.10;;;;;;;12.93;84.81;100187.16;5047997;28;20064;-80
2024/03/30 01:51:27;;;;;;;14.93;4.55;;;;;;;12.83;85.59;100180.53;5048512;28;20017;-79
2024/03/30 01:53:52;;;;;;;13.05;4.88;;;;;;;12.43;89.66;100175.78;5048305;28;20063;-78
2024/03/30 01:56:21;;;;;;;14.57;4.95;;;;;;;12.53;90.13;100201.16;5047558;28;20060;-79
2024/03/30 01:58:48;;;;;;;17.63;5.03;;;;;;;12.82;86.68;100200.28;5048272;28;20032;-78
2024/03/30 02:01:16;;;;;;;15.07;4.75;;;;;;;12.31;90.74;100188.28;5047777;28;20063;-79
2024/03/30 02:03:42;;;;;;;13.02;4.53;;;;;;;12.15;93.88;100191.59;5048075;28;20049;-79
2024/03/30 02:06:08;;;;;;;16.65;4.50;;;;;;;12.45;92.18;100207.66;5047028;28;20049;-79
2024/03/30 02:08:35;;;;;;;14.60;4.47;;;;;;;12.14;95.06;100184.63;5048320;28;20159;-79
2024/03/30 02:11:01;;;;;;;13.75;4.30;;;;;;;12.38;94.63;100209.59;5047951;28;20025;-78
2024/03/30 02:13:28;;;;;;;12.73;4.28;;;;;;;12.65;92.29;100212.72;5046807;28;20037;-79
2024/03/30 02:15:53;;;;;;;14.38;4.88;;;;;;;12.48;92.99;100185.78;5047748;28;20108;-79
2024/03/30 02:18:19;;;;;;;18.85;4.60;;;;;;;12.52;91.16;100191.50;5048067;28;20108;-79
2024/03/30 02:20:44;;;;;;;13.50;4.28;;;;;;;12.27;93.43;100203.16;5047552;28;20037;-80
2024/03/30 02:23:15;;;;;;;14.05;4.40;;;;;;;11.95;97.75;100200.69;5047814;28;20021;-79
2024/03/30 02:25:41;;;;;;;12.40;4.55;;;;;;;11.82;99.38;100196.28;5048051;28;20025;-80
2024/03/30 02:28:06;;;;;;;14.75;4.90;;;;;;;12.61;92.32;100224.91;5046418;28;20029;-79
2024/03/30 02:30:32;;;;;;;13.77;4.72;;;;;;;12.74;90.48;100222.03;5047683;28;20053;-79
2024/03/30 02:32:58;;;;;;;11.90;4.15;;;;;;;11.70;93.61;100189.25;5047518;28;20501;-79
2024/03/30 02:35:25;;;;;;;13.15;5.70;;;;;;;11.51;95.24;100207.94;5045947;28;20025;-79
2024/03/30 02:37:53;;;;;;;16.08;4.80;;;;;;;11.22;100.00;100228.97;5047684;28;20079;-80
2024/03/30 02:40:20;;;;;;;14.48;5.10;;;;;;;11.21;100.00;100221.97;5047953;28;20025;-78
2024/03/30 02:42:45;;;;;;;16.38;5.22;;;;;;;10.72;100.00;100170.25;5047144;28;20418;-79
2024/03/30 02:45:12;;;;;;;18.73;5.30;;;;;;;10.82;100.00;100217.78;5047716;28;20027;-78
2024/03/30 02:47:38;;;;;;;13.23;5.40;;;;;;;10.64;100.00;100194.50;5047344;28;20124;-79
2024/03/30 02:50:04;;;;;;;14.02;5.05;;;;;;;11.00;100.00;100182.34;5047737;28;20021;-79
2024/03/30 02:52:30;;;;;;;15.00;5.43;;;;;;;11.42;99.92;100219.94;5047557;28;20383;-79
2024/03/30 02:54:55;;;;;;;16.15;5.05;;;;;;;11.22;98.57;100191.59;5050135;28;20494;-79
2024/03/30 02:57:21;;;;;;;15.85;5.65;;;;;;;10.82;100.00;100223.13;5051446;28;20087;-80
2024/03/30 02:59:46;;;;;;;15.48;6.18;;;;;;;11.02;100.00;100206.97;5051468;28;20021;-79
2024/03/30 03:02:12;;;;;;;17.52;6.75;;;;;;;11.16;97.90;100205.81;5050475;28;20551;-79
2024/03/30 03:04:37;;;;;;;15.93;7.15;;;;;;;11.41;94.01;100204.97;5051327;28;20565;-79
2024/03/30 03:07:05;;;;;;;15.00;6.75;;;;;;;11.70;92.50;100240.81;5051696;28;20063;-79
2024/03/30 03:09:30;;;;;;;18.10;7.47;;;;;;;11.60;91.40;100214.59;5051188;28;20039;-79
2024/03/30 03:11:55;;;;;;;16.67;7.70;;;;;;;11.46;92.99;100240.66;5050937;28;20033;-79
2024/03/30 03:14:21;;;;;;;20.08;7.03;;;;;;;11.44;92.48;100231.19;5051660;28;20029;-79
2024/03/30 03:16:46;;;;;;;20.00;7.65;;;;;;;11.18;91.77;100227.75;5050621;28;20064;-79
2024/03/30 03:19:12;;;;;;;16.10;6.88;;;;;;;10.78;94.85;100217.38;5051485;28;20029;-79
2024/03/30 03:21:37;;;;;;;15.65;6.50;;;;;;;11.23;90.65;100213.75;5050916;28;20033;-78
2024/03/30 03:24:03;;;;;;;16.35;7.03;;;;;;;11.61;87.41;100234.94;5051183;28;20063;-79
2024/03/30 03:26:28;;;;;;;13.95;5.75;;;;;;;11.26;89.19;100203.47;5050836;28;20032;-79
2024/03/30 03:28:53;;;;;;;14.15;6.30;;;;;;;11.74;87.34;100251.88;5049714;28;20517;-79
2024/03/30 03:31:19;;;;;;;16.10;5.80;;;;;;;11.54;86.39;100233.38;5050677;28;20087;-79
2024/03/30 03:33:44;;;;;;;15.43;6.13;;;;;;;11.86;86.23;100248.22;5050672;28;20489;-79
2024/03/30 03:36:10;;;;;;;16.48;5.63;;;;;;;11.52;86.74;100257.63;5050529;28;20078;-79
2024/03/30 03:38:36;;;;;;;14.50;6.30;;;;;;;11.12;90.29;100233.97;5049330;28;20041;-80
2024/03/30 03:41:01;;;;;;;13.88;6.20;;;;;;;11.46;89.45;100255.84;5050693;28;20505;-79
2024/03/30 03:43:27;;;;;;;12.18;6.32;;;;;;;10.99;92.52;100255.41;5049492;28;20619;-79
2024/03/30 03:45:57;;;;;;;16.23;5.90;;;;;;;11.00;92.55;100246.38;5050671;28;20397;-80
2024/03/30 03:48:22;;;;;;;16.48;5.50;;;;;;;10.83;92.10;100206.91;5050103;28;20517;-80
2024/03/30 03:50:48;;;;;;;14.98;5.20;;;;;;;11.20;91.49;100268.41;5050776;28;20025;-79
2024/03/30 03:53:13;;;;;;;13.05;5.93;;;;;;;11.49;86.39;100239.38;5050713;28;20516;-78
2024/03/30 03:55:39;;;;;;;14.15;7.13;;;;;;;11.19;87.51;100229.38;5050380;28;20025;-79
2024/03/30 03:58:04;;;;;;;13.82;5.70;;;;;;;10.80;91.81;100255.34;5050327;28;20029;-79
2024/03/30 04:00:30;;;;;;;14.70;6.07;;;;;;;10.80;92.99;100259.88;5050339;28;20020;-79
2024/03/30 04:02:55;;;;;;;12.82;5.60;;;;;;;11.16;91.50;100253.84;5051825;28;20029;-80
2024/03/30 04:05:21;;;;;;;17.13;5.95;;;;;;;11.26;89.07;100248.84;5069441;28;20033;-79
2024/03/30 04:07:46;;;;;;;11.13;5.97;;;;;;;10.89;91.41;100220.38;5061592;28;20028;-79
2024/03/30 04:10:15;;;;;;;15.00;5.43;;;;;;;11.54;87.34;100250.22;5049962;28;20398;-79
2024/03/30 04:12:40;;;;;;;;;;;;;;;11.61;87.26;100261.66;5050728;28;20029;-79
2024/03/30 04:15:06;;;;;;;14.20;5.93;;;;;;;11.66;85.65;100251.13;5050086;28;19919;-80
2024/03/30 04:17:32;;;;;;;16.58;6.72;;;;;;;11.70;84.42;100256.84;5048286;28;20027;-80
2024/03/30 04:19:58;;;;;;;18.75;6.55;;;;;;;11.66;86.04;100261.00;5049954;28;20029;-79
2024/03/30 04:22:24;;;;;;;14.82;6.68;;;;;;;10.89;89.82;100255.91;5049677;28;20107;-79
2024/03/30 04:24:49;;;;;;;15.60;6.65;;;;;;;10.93;91.53;100257.13;5050438;28;20082;-80
2024/03/30 04:27:14;;;;;;;21.10;6.70;;;;;;;10.99;92.50;100260.75;5049218;28;20025;-80
2024/03/30 04:29:40;;;;;;;19.30;7.63;;;;;;;11.23;91.36;100267.94;5049245;28;20771;-80
2024/03/30 04:32:05;;;;;;;18.90;8.95;;;;;;;11.20;89.54;100257.72;5048941;28;20021;-79
2024/03/30 04:34:31;;;;;;;22.55;9.55;;;;;;;11.46;87.56;100245.16;5051488;28;20021;-79
2024/03/30 04:36:56;;;;;;;23.30;9.65;;;;;;;11.72;86.76;100270.78;5048998;28;20398;-79
2024/03/30 04:39:22;;;;;;;19.10;9.60;;;;;;;11.80;86.35;100267.84;5047565;28;20025;-81
2024/03/30 04:41:48;;;;;;;21.10;9.40;;;;;;;11.13;93.51;100272.16;5048942;28;20494;-80
2024/03/30 04:44:13;;;;;;;18.50;8.27;;;;;;;10.92;90.10;100222.63;5048871;28;20040;-79
2024/03/30 04:46:38;;;;;;;29.10;6.72;;;;;;;10.62;90.53;100260.59;5049546;28;20117;-79
2024/03/30 04:49:04;;;;;;;20.13;6.72;;;;;;;10.56;91.40;100261.44;5049298;28;20496;-79
2024/03/30 04:51:29;;;;;;;17.77;8.82;;;;;;;10.69;91.18;100268.56;5049126;28;20053;-79
2024/03/30 04:53:55;;;;;;;21.40;9.55;;;;;;;10.47;93.53;100230.75;5049374;28;20503;-80
2024/03/30 04:56:20;;;;;;;17.05;8.55;;;;;;;10.63;93.31;100252.38;5049037;28;20112;-80
2024/03/30 04:58:45;;;;;;;24.25;10.10;;;;;;;11.15;90.44;100276.22;5048965;28;20414;-80
2024/03/30 05:01:11;;;;;;;27.08;9.65;;;;;;;10.71;94.47;100271.84;5048263;28;20112;-79
2024/03/30 05:03:37;;;;;;;19.52;9.02;;;;;;;10.88;93.89;100282.81;5049296;28;20460;-79
2024/03/30 05:06:04;;;;;;;19.90;8.13;;;;;;;11.05;92.58;100284.75;5049094;28;20116;-79
2024/03/30 05:08:30;;;;;;;21.88;8.73;;;;;;;11.08;92.58;100267.47;5048948;28;20017;-79
2024/03/30 05:10:56;;;;;;;33.17;14.23;;;;;;;11.30;91.08;100283.09;5048674;28;20492;-80
2024/03/30 05:13:23;;;;;;;32.80;15.35;;;;;;;11.32;91.47;100281.88;5049056;28;20029;-79
2024/03/30 05:15:48;;;;;;;18.55;9.65;;;;;;;11.62;89.08;100257.94;5046244;28;20482;-80
2024/03/30 05:18:15;;;;;;;29.27;10.48;;;;;;;11.73;88.37;100274.28;5048610;28;21170;-79
2024/03/30 05:20:51;;;;;;;27.05;11.15;;;;;;;11.80;89.33;100273.16;5045544;28;20017;-78
2024/03/30 05:23:19;;;;;;;25.25;11.70;;;;;;;12.01;89.90;100265.78;5048141;28;20468;-80
2024/03/30 05:25:45;;;;;;;19.75;9.93;;;;;;;12.20;88.17;100271.97;5050843;28;20013;-79
2024/03/30 05:28:12;;;;;;;20.98;8.93;;;;;;;11.85;88.93;100248.47;5048592;28;20478;-79
2024/03/30 05:30:38;;;;;;;18.55;8.13;;;;;;;12.08;88.60;100279.09;5048772;28;20084;-80
2024/03/30 05:33:04;;;;;;;19.80;9.70;;;;;;;12.33;87.85;100282.47;5048487;28;20083;-80
2024/03/30 05:35:29;;;;;;;32.00;13.38;;;;;;;12.50;85.29;100257.78;5048814;28;20029;-81
2024/03/30 05:37:55;;;;;;;21.90;10.80;;;;;;;12.34;85.96;100251.19;5048728;28;20028;-82
2024/03/30 05:40:20;;;;;;;25.00;12.27;;;;;;;12.55;86.39;100257.94;5048329;28;20025;-81
2024/03/30 05:42:45;;;;;;;23.02;10.50;;;;;;;12.67;85.68;100266.81;5050549;28;20414;-81
2024/03/30 05:45:11;;;;;;;20.30;7.82;;;;;;;12.63;85.75;100238.88;5048725;28;20518;-81
2024/03/30 05:47:36;;;;;;;18.70;6.97;;;;;;;12.81;87.14;100267.41;5048211;28;20029;-80
2024/03/30 05:50:02;;;;;;;18.85;7.53;;;;;;;12.76;89.32;100249.38;5048565;28;20106;-80
2024/03/30 05:52:27;;;;;;;21.48;7.82;;;;;;;12.89;92.22;100268.94;5047018;28;20029;-80
2024/03/30 05:54:53;;;;;;;19.77;6.32;;;;;;;13.08;94.12;100267.84;5046632;28;21059;-80
2024/03/30 05:57:18;;;;;;;18.50;7.47;;;;;;;13.44;92.44;100277.59;5048038;28;20082;-79
2024/03/30 05:59:44;;;;;;;20.77;8.10;;;;;;;13.62;92.97;100292.72;5046796;28;20060;-80
2024/03/30 06:02:09;;;;;;;19.20;7.22;;;;;;;13.78;90.71;100266.25;5048227;28;20025;-80
2024/03/30 06:04:34;;;;;;;29.02;8.90;;;;;;;13.91;90.03;100268.69;5049837;28;20428;-79
2024/03/30 06:07:00;;;;;;;21.42;8.63;;;;;;;13.96;92.35;100273.34;5048971;28;20029;-79
2024/03/30 06:09:25;;;;;;;22.38;6.43;;;;;;;14.02;89.28;100259.81;5047371;28;20025;-80
2024/03/30 06:11:51;;;;;;;25.35;7.45;;;;;;;14.23;90.15;100300.44;5047726;28;20482;-80
2024/03/30 06:14:16;;;;;;;23.23;6.45;;;;;;;14.34;91.92;100299.59;5047886;28;20029;-79
2024/03/30 06:16:42;;;;;;;20.73;6.57;;;;;;;14.23;92.55;100279.81;5047886;28;20025;-79
2024/03/30 06:19:08;;;;;;;26.98;11.25;;;;;;;14.81;90.58;100307.53;5047791;28;20036;-80
2024/03/30 06:21:34;;;;;;;22.90;6.20;;;;;;;14.35;92.41;100292.38;5047812;28;20029;-80
2024/03/30 06:23:59;;;;;;;23.45;6.03;;;;;;;14.86;91.47;100307.59;5047920;28;20033;-80
2024/03/30 06:26:25;;;;;;;26.17;7.63;;;;;;;14.85;93.86;100291.72;5059627;28;20098;-80
2024/03/30 06:28:50;;;;;;;21.08;7.40;;;;;;;15.02;92.33;100295.25;5065633;28;20044;-80
2024/03/30 06:31:16;;;;;;;25.88;5.95;;;;;;;15.36;91.04;100305.19;5047395;28;20067;-79
2024/03/30 06:33:41;;;;;;;24.27;6.38;;;;;;;15.56;91.19;100318.16;5047368;28;20054;-79
2024/03/30 06:36:07;;;;;;;24.17;6.22;;;;;;;15.62;88.31;100298.34;5047334;28;20044;-80
2024/03/30 06:38:32;;;;;;;17.98;5.90;;;;;;;15.61;86.56;100300.22;5046766;28;20017;-79
2024/03/30 06:43:42;;;;;;;22.65;7.20;;;;;;;15.79;85.34;100301.03;5047054;28;20186;-80
2024/03/30 06:46:08;;;;;;;21.63;5.72;;;;;;;15.84;83.77;100309.19;5045957;28;20557;-80
2024/03/30 06:48:33;;;;;;;23.75;6.43;;;;;;;16.09;81.82;100315.97;5047023;28;20029;-79
2024/03/30 06:50:59;;;;;;;21.50;7.60;;;;;;;16.38;80.16;100330.84;5030072;28;20037;-80
2024/03/30 06:53:24;;;;;;;22.13;7.45;;;;;;;16.47;76.07;100328.56;5037385;28;20482;-80
2024/03/30 06:55:50;;;;;;;19.55;5.65;;;;;;;16.21;79.51;100311.28;5045311;28;20056;-80
2024/03/30 06:58:15;;;;;;;24.52;6.43;;;;;;;16.62;76.40;100309.88;5047225;28;20425;-79
2024/03/30 07:00:42;;;;;;;21.13;6.50;;;;;;;16.79;75.69;100299.00;5047155;28;20045;-80
2024/03/30 07:03:07;;;;;;;19.65;6.30;;;;;;;16.98;76.44;100322.91;5047349;28;20032;-80
2024/03/30 07:05:32;;;;;;;18.30;5.20;;;;;;;17.14;74.06;100295.06;5047188;28;20056;-79
2024/03/30 07:07:58;;;;;;;18.83;5.57;;;;;;;16.89;73.75;100275.97;5047603;28;20120;-79
2024/03/30 07:10:23;;;;;;;19.45;4.78;;;;;;;17.26;71.10;100314.56;5045532;28;20118;-81
2024/03/30 07:12:50;;;;;;;20.55;5.15;;;;;;;17.55;68.96;100316.94;5046895;28;20498;-81
2024/03/30 07:15:16;;;;;;;17.55;5.07;;;;;;;17.39;69.71;100307.09;5047009;28;20079;-80
2024/03/30 07:17:41;;;;;;;20.23;4.72;;;;;;;17.46;69.77;100307.69;5046919;28;20045;-80
2024/03/30 07:20:07;;;;;;;20.73;5.05;;;;;;;17.75;69.21;100323.53;5043738;28;20116;-80
2024/03/30 07:22:32;;;;;;;21.85;4.90;;;;;;;17.96;68.76;100301.03;5046957;28;20686;-79
2024/03/30 07:24:57;;;;;;;20.30;6.07;;;;;;;18.41;64.39;100317.69;5046874;28;20029;-79
2024/03/30 07:27:23;;;;;;;22.05;4.57;;;;;;;18.13;62.52;100305.41;5046784;28;20116;-80
2024/03/30 07:29:52;;;;;;;17.58;3.70;;;;;;;18.24;59.66;100328.66;5047229;28;20045;-79
2024/03/30 07:32:17;;;;;;;16.35;3.67;;;;;;;18.27;62.05;100328.16;5046823;28;20108;-79
2024/03/30 07:34:47;;;;;;;20.52;4.32;;;;;;;18.59;61.66;100319.06;5050656;28;20111;-79
2024/03/30 07:37:12;;;;;;;16.42;3.90;;;;;;;18.89;59.28;100331.06;5046554;28;20021;-80
2024/03/30 07:39:39;;;;;;;21.60;5.55;;;;;;;18.87;60.26;100332.13;5047236;28;20438;-80
2024/03/30 07:42:05;;;;;;;22.93;4.47;;;;;;;18.78;60.99;100325.63;5047923;28;20025;-80
2024/03/30 07:44:30;;;;;;;16.63;4.05;;;;;;;18.87;61.92;100329.44;5050668;28;20033;-79
2024/03/30 07:46:56;;;;;;;18.35;3.90;;;;;;;18.97;60.86;100304.31;5050622;28;20029;-79
2024/03/30 07:49:21;;;;;;;18.83;3.97;;;;;;;19.10;62.37;100318.38;5050297;28;20108;-79
2024/03/30 07:51:47;;;;;;;18.02;4.07;;;;;;;19.47;58.56;100318.09;5049219;28;20033;-79
2024/03/30 07:54:12;;;;;;;24.23;5.90;;;;;;;19.44;58.11;100272.69;5050958;28;20024;-80
2024/03/30 07:56:38;;;;;;;17.75;3.85;;;;;;;19.78;57.03;100323.53;5050108;28;20036;-79
2024/03/30 07:59:04;;;;;;;23.70;5.40;;;;;;;19.51;57.79;100324.59;5050372;28;20059;-79
2024/03/30 08:01:31;;;;;;;18.05;4.00;;;;;;;19.80;56.26;100318.66;5052025;28;20436;-79
2024/03/30 08:03:57;;;;;;;20.30;4.47;;;;;;;19.58;55.27;100318.94;5050468;28;20037;-79
2024/03/30 08:06:22;;;;;;;13.77;4.22;;;;;;;19.71;54.23;100328.41;5049057;28;20098;-80
2024/03/30 08:08:48;;;;;;;17.10;4.15;;;;;;;19.67;55.83;100339.72;5047153;28;20228;-80
2024/03/30 08:11:13;;;;;;;20.55;4.97;;;;;;;19.97;55.98;100326.47;5048533;28;20128;-80
2024/03/30 08:13:39;;;;;;;20.58;4.65;;;;;;;20.11;55.38;100321.28;5048490;28;20457;-80
2024/03/30 08:16:04;;;;;;;19.27;4.68;;;;;;;19.88;56.20;100328.91;5047955;28;20033;-81
2024/03/30 08:18:30;;;;;;;17.45;4.88;;;;;;;20.39;56.67;100325.19;5063629;28;20031;-80
2024/03/30 08:21:02;;;;;;;20.50;4.70;;;;;;;20.53;52.93;100322.69;5064226;28;20082;-80
2024/03/30 08:23:27;;;;;;;19.05;4.88;;;;;;;20.35;52.71;100316.00;5048423;28;20013;-80
2024/03/30 08:25:53;;;;;;;17.33;4.70;;;;;;;20.11;55.15;100315.88;5056540;28;20044;-81
2024/03/30 08:28:18;;;;;;;13.48;3.70;;;;;;;20.05;55.99;100307.75;5057090;28;20029;-81
2024/03/30 08:30:44;;;;;;;16.63;3.92;;;;;;;20.23;55.34;100308.22;5056900;28;20072;-80
2024/03/30 08:33:09;;;;;;;13.27;4.22;;;;;;;20.36;55.90;100313.03;5057600;28;20419;-81
2024/03/30 08:35:34;;;;;;;17.10;5.13;;;;;;;20.52;52.81;100327.31;5059359;28;20036;-79
2024/03/30 08:38:00;;;;;;;11.93;3.58;;;;;;;20.73;53.59;100310.97;5058320;28;20024;-80
2024/03/30 08:40:25;;;;;;;18.23;4.18;;;;;;;21.13;53.06;100331.59;5059665;28;20039;-80
2024/03/30 08:42:51;;;;;;;15.43;4.47;;;;;;;21.52;55.13;100314.47;5060601;28;20020;-79
2024/03/30 08:45:17;;;;;;;18.13;4.43;;;;;;;21.76;54.32;100321.81;5059709;28;20033;-79
2024/03/30 08:47:43;;;;;;;21.30;6.03;;;;;;;22.06;51.68;100316.06;5060030;28;20021;-78
2024/03/30 08:50:08;;;;;;;16.58;4.90;;;;;;;21.23;56.68;100293.53;5060825;28;20591;-78
2024/03/30 08:52:34;;;;;;;21.20;4.65;;;;;;;21.23;57.63;100281.88;5054530;28;20028;-78
2024/03/30 08:54:59;;;;;;;19.23;4.60;;;;;;;21.44;56.50;100261.63;5056362;28;20123;-78
2024/03/30 08:57:25;;;;;;;20.55;4.68;;;;;;;21.34;55.95;100290.72;5056649;28;20025;-78
2024/03/30 08:59:51;;;;;;;19.10;4.22;;;;;;;21.38;57.58;100289.06;5076308;28;20431;-78
2024/03/30 09:02:20;;;;;;;21.15;4.35;;;;;;;21.74;54.17;100297.69;5073649;28;20024;-78
2024/03/30 09:04:46;;;;;;;16.08;3.97;;;;;;;21.46;55.26;100291.19;5067152;28;20025;-77
2024/03/30 09:07:11;;;;;;;15.05;3.95;;;;;;;21.11;54.25;100267.88;5052806;28;20089;-77
2024/03/30 09:09:37;;;;;;;19.55;4.90;;;;;;;21.21;53.30;100263.19;5053744;28;20064;-79
2024/03/30 09:12:03;;;;;;;15.40;4.13;;;;;;;21.26;55.46;100268.53;5054703;28;20029;-78
2024/03/30 09:14:29;;;;;;;18.52;4.10;;;;;;;21.53;53.26;100275.38;5055713;28;20035;-78
2024/03/30 09:16:54;;;;;;;13.52;3.47;;;;;;;21.68;52.93;100266.28;5053241;28;20029;-79
2024/03/30 09:19:20;;;;;;;16.90;4.15;;;;;;;22.16;52.93;100249.94;5052753;28;20039;-78
2024/03/30 09:21:45;;;;;;;15.15;4.63;;;;;;;21.78;53.78;100227.34;5052439;28;20075;-79
2024/03/30 09:24:11;;;;;;;12.43;3.85;;;;;;;21.63;56.48;100223.69;5051183;28;20052;-81
2024/03/30 09:26:36;;;;;;;13.93;4.78;;;;;;;22.17;55.71;100240.72;5051436;28;20068;-79
2024/03/30 09:29:02;;;;;;;16.83;3.92;;;;;;;22.18;52.73;100241.50;5050701;28;20440;-81
2024/03/30 09:31:27;;;;;;;16.52;4.68;;;;;;;22.68;51.62;100247.34;5050218;28;20054;-79
2024/03/30 09:33:52;;;;;;;15.90;3.83;;;;;;;22.42;51.70;100227.91;5050872;28;20029;-79
2024/03/30 09:36:18;;;;;;;16.88;3.95;;;;;;;22.78;52.66;100252.63;5049994;28;20028;-79
2024/03/30 09:38:44;;;;;;;19.42;4.78;;;;;;;22.94;51.42;100233.34;5049072;28;20033;-78
2024/03/30 09:41:12;;;;;;;19.20;4.47;;;;;;;22.99;51.43;100250.38;5050189;28;20517;-79
2024/03/30 09:43:39;;;;;;;14.73;4.35;;;;;;;22.32;52.55;100234.28;5049564;28;20141;-79
2024/03/30 09:46:05;;;;;;;19.67;3.90;;;;;;;22.95;51.71;100237.69;5049885;28;20024;-79
2024/03/30 09:48:32;;;;;;;18.98;4.35;;;;;;;23.18;50.53;100241.41;5049638;28;20216;-78
2024/03/30 09:50:59;;;;;;;17.77;4.80;;;;;;;23.50;50.19;100216.06;5049065;28;20123;-78
2024/03/30 09:53:26;;;;;;;13.73;4.37;;;;;;;23.50;50.98;100216.06;5048568;28;20040;-79
2024/03/30 09:55:57;;;;;;;21.00;4.55;;;;;;;23.64;49.82;100176.03;5048731;28;20509;-78
2024/03/30 09:58:23;;;;;;;18.35;4.35;;;;;;;23.66;49.07;100192.06;5048488;28;20481;-81
2024/03/30 10:00:51;;;;;;;17.65;4.63;;;;;;;24.21;47.42;100213.81;5048993;28;20706;-80
2024/03/30 10:03:20;;;;;;;13.23;3.88;;;;;;;23.92;48.05;100210.63;5047887;28;20051;-80
2024/03/30 10:05:48;;;;;;;15.80;3.60;;;;;;;24.33;46.10;100204.25;5046930;28;20434;-79
2024/03/30 10:08:17;;;;;;;15.90;4.05;;;;;;;24.64;43.84;100220.72;5048609;28;20120;-79
2024/03/30 10:10:49;;;;;;;14.95;4.35;;;;;;;24.86;46.52;100211.75;5046656;28;20056;-80
2024/03/30 10:13:29;;;;;;;13.35;3.70;;;;;;;24.41;44.47;100201.59;5041972;28;20025;-80
2024/03/30 10:15:55;;;;;;;16.55;3.75;;;;;;;24.75;44.14;100200.28;5037178;28;20017;-79
2024/03/30 10:18:22;;;;;;;14.05;3.92;;;;;;;24.97;43.28;100196.75;5048002;28;20029;-79
2024/03/30 10:20:47;;;;;;;13.18;4.40;;;;;;;25.49;43.16;100189.94;5047528;28;20509;-80
2024/03/30 10:23:14;;;;;;;17.92;4.93;;;;;;;25.45;42.82;100197.97;5049566;28;20028;-79
2024/03/30 10:25:51;;;;;;;17.02;4.75;;;;;;;25.54;42.18;100204.28;5046520;28;20474;-79
2024/03/30 10:28:18;;;;;;;20.05;6.60;;;;;;;25.75;40.96;100179.09;5047811;28;20032;-79
2024/03/30 10:30:44;;;;;;;12.77;3.85;;;;;;;25.65;42.52;100183.72;5047240;28;20171;-79
2024/03/30 10:33:12;;;;;;;15.20;4.25;;;;;;;25.84;42.28;100169.78;5046305;28;20088;-79
2024/03/30 10:35:38;;;;;;;17.50;4.97;;;;;;;25.86;41.75;100174.94;5047926;28;20037;-79
2024/03/30 10:38:05;;;;;;;16.55;4.50;;;;;;;25.70;42.45;100151.94;5047320;28;20174;-80
2024/03/30 10:40:30;;;;;;;13.13;4.40;;;;;;;25.85;40.79;100146.03;5048049;28;20041;-79
2024/03/30 10:42:59;;;;;;;16.25;4.70;;;;;;;26.31;40.11;100171.94;5047364;28;20029;-82
2024/03/30 10:45:24;;;;;;;15.75;3.75;;;;;;;25.91;41.56;100142.03;5048906;28;20036;-79
2024/03/30 10:47:54;;;;;;;16.85;3.70;;;;;;;26.28;39.42;100117.94;5048345;28;20033;-79
2024/03/30 10:50:20;;;;;;;14.07;3.70;;;;;;;26.46;38.59;100157.78;5047522;28;20041;-79
2024/03/30 10:52:46;;;;;;;18.88;4.90;;;;;;;26.31;38.94;100141.88;5047040;28;20032;-80
2024/03/30 10:55:11;;;;;;;12.93;3.50;;;;;;;26.10;39.31;100111.66;5047731;28;20391;-80
2024/03/30 10:57:38;;;;;;;9.18;3.20;;;;;;;26.84;38.42;100137.94;5046967;28;20914;-79
2024/03/30 11:00:07;;;;;;;15.25;3.30;;;;;;;26.72;37.67;100121.41;5047604;28;20037;-79
2024/03/30 11:02:35;;;;;;;12.10;2.97;;;;;;;26.83;37.17;100122.66;5047179;28;20029;-79
2024/03/30 11:05:03;;;;;;;12.63;5.57;;;;;;;26.97;34.92;100121.63;5047513;28;20025;-79
2024/03/30 11:07:29;;;;;;;9.60;3.05;;;;;;;27.38;32.36;100114.72;5047360;28;20025;-80
2024/03/30 11:09:57;;;;;;;8.60;2.40;;;;;;;27.28;33.19;100128.78;5045758;28;20039;-79
2024/03/30 11:12:23;;;;;;;9.48;2.65;;;;;;;27.62;34.72;100109.44;5047290;28;20478;-79
2024/03/30 11:14:49;;;;;;;13.88;3.05;;;;;;;27.27;34.24;100094.34;5047529;28;20037;-80